sensor_id;sensor_type;location;lat;lon;timestamp;P1;durP1;ratioP1;P2;durP2;ratioP2
75446;SDS011;64024;55.820;37.574;2023-04-16T00:00:48;7.00;;;4.63;;
75446;SDS011;64024;55.820;37.574;2023-04-16T00:03:14;6.78;;;4.70;;
75446;SDS011;64024;55.820;37.574;2023-04-16T00:05:40;5.40;;;4.65;;
75446;SDS011;64024;55.820;37.574;2023-04-16T00:08:06;9.82;;;6.13;;
75446;SDS011;64024;55.820;37.574;2023-04-16T00:10:33;6.18;;;5.55;;
75446;SDS011;64024;55.820;37.574;2023-04-16T00:12:58;9.15;;;5.43;;
75446;SDS011;64024;55.820;37.574;2023-04-16T00:15:24;11.73;;;6.57;;
75446;SDS011;64024;55.820;37.574;2023-04-16T00:17:49;9.05;;;6.53;;
75446;SDS011;64024;55.820;37.574;2023-04-16T00:20:15;9.40;;;6.95;;
75446;SDS011;64024;55.820;37.574;2023-04-16T00:22:40;7.78;;;6.53;;
75446;SDS011;64024;55.820;37.574;2023-04-16T00:25:06;7.38;;;5.70;;
75446;SDS011;64024;55.820;37.574;2023-04-16T00:27:32;7.70;;;6.70;;
75446;SDS011;64024;55.820;37.574;2023-04-16T00:29:57;8.95;;;5.95;;
75446;SDS011;64024;55.820;37.574;2023-04-16T00:32:23;10.02;;;6.88;;
75446;SDS011;64024;55.820;37.574;2023-04-16T00:34:48;11.82;;;8.07;;
75446;SDS011;64024;55.820;37.574;2023-04-16T00:37:14;9.18;;;8.20;;
75446;SDS011;64024;55.820;37.574;2023-04-16T00:39:39;8.88;;;6.60;;
75446;SDS011;64024;55.820;37.574;2023-04-16T00:42:05;10.25;;;7.43;;
75446;SDS011;64024;55.820;37.574;2023-04-16T00:44:30;8.57;;;6.45;;
75446;SDS011;64024;55.820;37.574;2023-04-16T00:46:59;8.35;;;7.22;;
75446;SDS011;64024;55.820;37.574;2023-04-16T00:49:26;12.10;;;8.73;;
75446;SDS011;64024;55.820;37.574;2023-04-16T00:51:54;11.35;;;7.28;;
75446;SDS011;64024;55.820;37.574;2023-04-16T00:54:19;8.43;;;6.80;;
75446;SDS011;64024;55.820;37.574;2023-04-16T00:56:45;9.57;;;7.28;;
75446;SDS011;64024;55.820;37.574;2023-04-16T00:59:11;10.82;;;7.50;;
75446;SDS011;64024;55.820;37.574;2023-04-16T01:01:37;8.43;;;7.47;;
75446;SDS011;64024;55.820;37.574;2023-04-16T01:04:02;8.60;;;7.05;;
75446;SDS011;64024;55.820;37.574;2023-04-16T01:06:31;13.18;;;8.57;;
75446;SDS011;64024;55.820;37.574;2023-04-16T01:08:56;12.80;;;7.45;;
75446;SDS011;64024;55.820;37.574;2023-04-16T01:11:22;11.05;;;8.38;;
75446;SDS011;64024;55.820;37.574;2023-04-16T01:13:48;9.98;;;8.30;;
75446;SDS011;64024;55.820;37.574;2023-04-16T01:16:13;9.35;;;8.45;;
75446;SDS011;64024;55.820;37.574;2023-04-16T01:18:39;10.57;;;8.23;;
75446;SDS011;64024;55.820;37.574;2023-04-16T01:21:05;10.45;;;8.38;;
75446;SDS011;64024;55.820;37.574;2023-04-16T01:23:30;11.88;;;7.63;;
75446;SDS011;64024;55.820;37.574;2023-04-16T01:25:56;9.23;;;7.72;;
75446;SDS011;64024;55.820;37.574;2023-04-16T01:28:22;11.45;;;8.48;;
75446;SDS011;64024;55.820;37.574;2023-04-16T01:30:47;10.45;;;7.13;;
75446;SDS011;64024;55.820;37.574;2023-04-16T01:33:13;9.73;;;7.45;;
75446;SDS011;64024;55.820;37.574;2023-04-16T01:35:39;10.55;;;8.50;;
75446;SDS011;64024;55.820;37.574;2023-04-16T01:38:05;8.93;;;8.05;;
75446;SDS011;64024;55.820;37.574;2023-04-16T01:40:32;10.68;;;8.60;;
75446;SDS011;64024;55.820;37.574;2023-04-16T01:42:58;13.27;;;7.53;;
75446;SDS011;64024;55.820;37.574;2023-04-16T01:45:24;11.50;;;8.40;;
75446;SDS011;64024;55.820;37.574;2023-04-16T01:47:49;8.45;;;7.20;;
75446;SDS011;64024;55.820;37.574;2023-04-16T01:50:16;11.55;;;8.20;;
75446;SDS011;64024;55.820;37.574;2023-04-16T01:52:42;10.00;;;8.15;;
75446;SDS011;64024;55.820;37.574;2023-04-16T01:55:08;8.73;;;7.47;;
75446;SDS011;64024;55.820;37.574;2023-04-16T01:57:34;10.43;;;7.85;;
75446;SDS011;64024;55.820;37.574;2023-04-16T01:59:59;10.95;;;8.40;;
75446;SDS011;64024;55.820;37.574;2023-04-16T02:02:25;8.80;;;7.90;;
75446;SDS011;64024;55.820;37.574;2023-04-16T02:04:53;11.00;;;8.02;;
75446;SDS011;64024;55.820;37.574;2023-04-16T02:07:19;11.82;;;7.60;;
75446;SDS011;64024;55.820;37.574;2023-04-16T02:09:45;8.60;;;7.70;;
75446;SDS011;64024;55.820;37.574;2023-04-16T02:12:10;11.23;;;7.82;;
75446;SDS011;64024;55.820;37.574;2023-04-16T02:14:36;10.23;;;8.82;;
75446;SDS011;64024;55.820;37.574;2023-04-16T02:17:02;10.18;;;7.90;;
75446;SDS011;64024;55.820;37.574;2023-04-16T02:19:27;9.75;;;6.65;;
75446;SDS011;64024;55.820;37.574;2023-04-16T02:21:53;9.68;;;7.45;;
75446;SDS011;64024;55.820;37.574;2023-04-16T02:24:19;11.68;;;8.27;;
75446;SDS011;64024;55.820;37.574;2023-04-16T02:26:45;9.68;;;7.68;;
75446;SDS011;64024;55.820;37.574;2023-04-16T02:29:11;9.65;;;7.97;;
75446;SDS011;64024;55.820;37.574;2023-04-16T02:31:36;10.18;;;7.85;;
75446;SDS011;64024;55.820;37.574;2023-04-16T02:34:02;12.45;;;8.70;;
75446;SDS011;64024;55.820;37.574;2023-04-16T02:36:28;10.35;;;8.90;;
75446;SDS011;64024;55.820;37.574;2023-04-16T02:38:56;10.60;;;8.55;;
75446;SDS011;64024;55.820;37.574;2023-04-16T02:41:21;12.43;;;8.95;;
75446;SDS011;64024;55.820;37.574;2023-04-16T02:43:47;8.55;;;7.45;;
75446;SDS011;64024;55.820;37.574;2023-04-16T02:46:13;13.38;;;8.38;;
75446;SDS011;64024;55.820;37.574;2023-04-16T02:48:38;13.20;;;7.95;;
75446;SDS011;64024;55.820;37.574;2023-04-16T02:51:04;17.27;;;8.15;;
75446;SDS011;64024;55.820;37.574;2023-04-16T02:53:30;11.48;;;7.60;;
75446;SDS011;64024;55.820;37.574;2023-04-16T02:55:55;9.98;;;8.10;;
75446;SDS011;64024;55.820;37.574;2023-04-16T02:58:22;8.98;;;8.05;;
75446;SDS011;64024;55.820;37.574;2023-04-16T03:00:49;10.10;;;7.72;;
75446;SDS011;64024;55.820;37.574;2023-04-16T03:03:15;10.55;;;8.80;;
75446;SDS011;64024;55.820;37.574;2023-04-16T03:05:41;11.48;;;8.73;;
75446;SDS011;64024;55.820;37.574;2023-04-16T03:08:07;11.85;;;8.23;;
75446;SDS011;64024;55.820;37.574;2023-04-16T03:10:33;13.75;;;8.93;;
75446;SDS011;64024;55.820;37.574;2023-04-16T03:13:00;14.32;;;9.70;;
75446;SDS011;64024;55.820;37.574;2023-04-16T03:15:26;13.13;;;9.07;;
75446;SDS011;64024;55.820;37.574;2023-04-16T03:17:52;11.02;;;8.38;;
75446;SDS011;64024;55.820;37.574;2023-04-16T03:20:18;11.13;;;8.15;;
75446;SDS011;64024;55.820;37.574;2023-04-16T03:22:44;13.55;;;8.45;;
75446;SDS011;64024;55.820;37.574;2023-04-16T03:25:10;9.90;;;7.75;;
75446;SDS011;64024;55.820;37.574;2023-04-16T03:27:36;9.85;;;7.43;;
75446;SDS011;64024;55.820;37.574;2023-04-16T03:30:04;8.60;;;7.72;;
75446;SDS011;64024;55.820;37.574;2023-04-16T03:32:34;8.80;;;7.85;;
75446;SDS011;64024;55.820;37.574;2023-04-16T03:35:01;9.35;;;8.40;;
75446;SDS011;64024;55.820;37.574;2023-04-16T03:37:27;8.98;;;7.85;;
75446;SDS011;64024;55.820;37.574;2023-04-16T03:39:53;8.05;;;7.30;;
75446;SDS011;64024;55.820;37.574;2023-04-16T03:42:18;9.95;;;7.75;;
75446;SDS011;64024;55.820;37.574;2023-04-16T03:44:44;8.95;;;7.38;;
75446;SDS011;64024;55.820;37.574;2023-04-16T03:47:09;9.27;;;7.18;;
75446;SDS011;64024;55.820;37.574;2023-04-16T03:49:35;9.00;;;7.72;;
75446;SDS011;64024;55.820;37.574;2023-04-16T03:52:00;10.43;;;8.38;;
75446;SDS011;64024;55.820;37.574;2023-04-16T03:54:26;8.82;;;7.70;;
75446;SDS011;64024;55.820;37.574;2023-04-16T03:56:52;9.57;;;7.25;;
75446;SDS011;64024;55.820;37.574;2023-04-16T03:59:17;7.30;;;6.57;;
75446;SDS011;64024;55.820;37.574;2023-04-16T04:01:43;7.97;;;7.18;;
75446;SDS011;64024;55.820;37.574;2023-04-16T04:04:08;8.57;;;6.22;;
75446;SDS011;64024;55.820;37.574;2023-04-16T04:06:34;12.57;;;7.72;;
75446;SDS011;64024;55.820;37.574;2023-04-16T04:09:00;8.93;;;7.40;;
75446;SDS011;64024;55.820;37.574;2023-04-16T04:11:26;8.93;;;7.35;;
75446;SDS011;64024;55.820;37.574;2023-04-16T04:13:52;9.95;;;7.00;;
75446;SDS011;64024;55.820;37.574;2023-04-16T04:16:17;8.32;;;7.60;;
75446;SDS011;64024;55.820;37.574;2023-04-16T04:18:43;7.15;;;6.43;;
75446;SDS011;64024;55.820;37.574;2023-04-16T04:21:08;8.13;;;7.22;;
75446;SDS011;64024;55.820;37.574;2023-04-16T04:23:34;9.43;;;7.38;;
75446;SDS011;64024;55.820;37.574;2023-04-16T04:26:00;8.63;;;7.72;;
75446;SDS011;64024;55.820;37.574;2023-04-16T04:30:56;8.48;;;7.07;;
75446;SDS011;64024;55.820;37.574;2023-04-16T04:33:24;9.65;;;7.72;;
75446;SDS011;64024;55.820;37.574;2023-04-16T04:35:50;8.90;;;7.38;;
75446;SDS011;64024;55.820;37.574;2023-04-16T04:38:15;8.05;;;7.25;;
75446;SDS011;64024;55.820;37.574;2023-04-16T04:40:46;9.27;;;7.68;;
75446;SDS011;64024;55.820;37.574;2023-04-16T04:43:12;9.05;;;8.15;;
75446;SDS011;64024;55.820;37.574;2023-04-16T04:45:38;10.02;;;7.82;;
75446;SDS011;64024;55.820;37.574;2023-04-16T04:48:03;8.68;;;7.82;;
75446;SDS011;64024;55.820;37.574;2023-04-16T04:50:29;11.05;;;8.02;;
75446;SDS011;64024;55.820;37.574;2023-04-16T04:52:55;8.57;;;7.70;;
75446;SDS011;64024;55.820;37.574;2023-04-16T04:55:20;8.65;;;7.00;;
75446;SDS011;64024;55.820;37.574;2023-04-16T04:57:46;8.88;;;7.65;;
75446;SDS011;64024;55.820;37.574;2023-04-16T05:00:11;9.00;;;8.10;;
75446;SDS011;64024;55.820;37.574;2023-04-16T05:02:37;8.43;;;7.35;;
75446;SDS011;64024;55.820;37.574;2023-04-16T05:05:03;9.07;;;8.05;;
75446;SDS011;64024;55.820;37.574;2023-04-16T05:07:29;8.35;;;7.40;;
75446;SDS011;64024;55.820;37.574;2023-04-16T05:09:54;9.43;;;8.40;;
75446;SDS011;64024;55.820;37.574;2023-04-16T05:12:20;9.68;;;7.25;;
75446;SDS011;64024;55.820;37.574;2023-04-16T05:14:46;8.93;;;8.02;;
75446;SDS011;64024;55.820;37.574;2023-04-16T05:17:11;7.57;;;6.82;;
75446;SDS011;64024;55.820;37.574;2023-04-16T05:19:37;8.85;;;8.05;;
75446;SDS011;64024;55.820;37.574;2023-04-16T05:22:02;9.30;;;7.60;;
75446;SDS011;64024;55.820;37.574;2023-04-16T05:24:28;8.07;;;7.07;;
75446;SDS011;64024;55.820;37.574;2023-04-16T05:26:53;7.78;;;6.88;;
75446;SDS011;64024;55.820;37.574;2023-04-16T05:29:20;8.10;;;7.30;;
75446;SDS011;64024;55.820;37.574;2023-04-16T05:31:46;11.13;;;6.88;;
75446;SDS011;64024;55.820;37.574;2023-04-16T05:34:11;8.52;;;7.68;;
75446;SDS011;64024;55.820;37.574;2023-04-16T05:36:37;8.85;;;7.47;;
75446;SDS011;64024;55.820;37.574;2023-04-16T05:39:02;9.07;;;8.18;;
75446;SDS011;64024;55.820;37.574;2023-04-16T05:41:28;9.00;;;7.47;;
75446;SDS011;64024;55.820;37.574;2023-04-16T05:43:53;9.00;;;8.15;;
75446;SDS011;64024;55.820;37.574;2023-04-16T05:46:19;8.32;;;7.47;;
75446;SDS011;64024;55.820;37.574;2023-04-16T05:48:44;9.43;;;8.52;;
75446;SDS011;64024;55.820;37.574;2023-04-16T05:51:10;8.55;;;7.72;;
75446;SDS011;64024;55.820;37.574;2023-04-16T05:53:36;8.40;;;7.35;;
75446;SDS011;64024;55.820;37.574;2023-04-16T05:56:01;8.32;;;7.40;;
75446;SDS011;64024;55.820;37.574;2023-04-16T05:58:27;8.75;;;7.85;;
75446;SDS011;64024;55.820;37.574;2023-04-16T06:00:52;9.15;;;8.23;;
75446;SDS011;64024;55.820;37.574;2023-04-16T06:03:18;9.60;;;8.70;;
75446;SDS011;64024;55.820;37.574;2023-04-16T06:05:44;10.23;;;8.65;;
75446;SDS011;64024;55.820;37.574;2023-04-16T06:08:09;8.68;;;7.78;;
75446;SDS011;64024;55.820;37.574;2023-04-16T06:10:35;9.23;;;8.40;;
75446;SDS011;64024;55.820;37.574;2023-04-16T06:13:01;9.43;;;7.93;;
75446;SDS011;64024;55.820;37.574;2023-04-16T06:15:26;8.40;;;7.32;;
75446;SDS011;64024;55.820;37.574;2023-04-16T06:17:52;7.78;;;7.10;;
75446;SDS011;64024;55.820;37.574;2023-04-16T06:20:18;9.95;;;8.95;;
75446;SDS011;64024;55.820;37.574;2023-04-16T06:22:43;10.77;;;8.15;;
75446;SDS011;64024;55.820;37.574;2023-04-16T06:25:09;9.07;;;7.43;;
75446;SDS011;64024;55.820;37.574;2023-04-16T06:27:35;9.60;;;8.75;;
75446;SDS011;64024;55.820;37.574;2023-04-16T06:30:01;9.43;;;8.50;;
75446;SDS011;64024;55.820;37.574;2023-04-16T06:32:26;12.00;;;8.65;;
75446;SDS011;64024;55.820;37.574;2023-04-16T06:34:52;10.05;;;8.27;;
75446;SDS011;64024;55.820;37.574;2023-04-16T06:37:17;10.10;;;8.25;;
75446;SDS011;64024;55.820;37.574;2023-04-16T06:39:43;10.60;;;7.72;;
75446;SDS011;64024;55.820;37.574;2023-04-16T06:42:08;9.93;;;8.23;;
75446;SDS011;64024;55.820;37.574;2023-04-16T06:44:34;12.30;;;9.40;;
75446;SDS011;64024;55.820;37.574;2023-04-16T06:47:00;9.68;;;8.65;;
75446;SDS011;64024;55.820;37.574;2023-04-16T06:49:25;11.00;;;7.70;;
75446;SDS011;64024;55.820;37.574;2023-04-16T06:51:51;11.55;;;8.15;;
75446;SDS011;64024;55.820;37.574;2023-04-16T06:54:16;12.30;;;8.35;;
75446;SDS011;64024;55.820;37.574;2023-04-16T06:56:43;12.13;;;8.07;;
75446;SDS011;64024;55.820;37.574;2023-04-16T06:59:09;9.68;;;7.63;;
75446;SDS011;64024;55.820;37.574;2023-04-16T07:01:34;9.73;;;8.07;;
75446;SDS011;64024;55.820;37.574;2023-04-16T07:04:00;12.00;;;7.45;;
75446;SDS011;64024;55.820;37.574;2023-04-16T07:06:26;11.65;;;9.63;;
75446;SDS011;64024;55.820;37.574;2023-04-16T07:08:51;12.48;;;9.10;;
75446;SDS011;64024;55.820;37.574;2023-04-16T07:11:17;10.50;;;9.40;;
75446;SDS011;64024;55.820;37.574;2023-04-16T07:13:43;9.50;;;8.50;;
75446;SDS011;64024;55.820;37.574;2023-04-16T07:16:09;11.23;;;8.15;;
75446;SDS011;64024;55.820;37.574;2023-04-16T07:18:34;11.20;;;8.82;;
75446;SDS011;64024;55.820;37.574;2023-04-16T07:21:00;10.10;;;8.35;;
75446;SDS011;64024;55.820;37.574;2023-04-16T07:23:25;12.90;;;9.23;;
75446;SDS011;64024;55.820;37.574;2023-04-16T07:25:51;11.23;;;8.38;;
75446;SDS011;64024;55.820;37.574;2023-04-16T07:28:17;11.93;;;7.57;;
75446;SDS011;64024;55.820;37.574;2023-04-16T07:30:43;9.40;;;8.13;;
75446;SDS011;64024;55.820;37.574;2023-04-16T07:33:08;14.50;;;9.15;;
75446;SDS011;64024;55.820;37.574;2023-04-16T07:35:34;12.90;;;9.00;;
75446;SDS011;64024;55.820;37.574;2023-04-16T07:37:59;12.50;;;8.48;;
75446;SDS011;64024;55.820;37.574;2023-04-16T07:40:25;9.48;;;8.27;;
75446;SDS011;64024;55.820;37.574;2023-04-16T07:42:50;9.70;;;8.55;;
75446;SDS011;64024;55.820;37.574;2023-04-16T07:45:16;9.23;;;8.32;;
75446;SDS011;64024;55.820;37.574;2023-04-16T07:47:43;10.77;;;9.10;;
75446;SDS011;64024;55.820;37.574;2023-04-16T07:50:09;11.20;;;8.63;;
75446;SDS011;64024;55.820;37.574;2023-04-16T07:52:35;12.07;;;8.85;;
75446;SDS011;64024;55.820;37.574;2023-04-16T07:55:03;10.32;;;9.18;;
75446;SDS011;64024;55.820;37.574;2023-04-16T07:57:29;10.70;;;8.88;;
75446;SDS011;64024;55.820;37.574;2023-04-16T07:59:54;9.90;;;8.55;;
75446;SDS011;64024;55.820;37.574;2023-04-16T08:02:20;10.13;;;8.40;;
75446;SDS011;64024;55.820;37.574;2023-04-16T08:04:45;10.35;;;9.35;;
75446;SDS011;64024;55.820;37.574;2023-04-16T08:07:11;9.80;;;8.80;;
75446;SDS011;64024;55.820;37.574;2023-04-16T08:09:42;10.82;;;9.50;;
75446;SDS011;64024;55.820;37.574;2023-04-16T08:12:17;11.80;;;9.60;;
75446;SDS011;64024;55.820;37.574;2023-04-16T08:14:43;10.10;;;8.23;;
75446;SDS011;64024;55.820;37.574;2023-04-16T08:17:10;10.23;;;9.23;;
75446;SDS011;64024;55.820;37.574;2023-04-16T08:19:36;11.10;;;10.00;;
75446;SDS011;64024;55.820;37.574;2023-04-16T08:22:01;11.25;;;8.63;;
75446;SDS011;64024;55.820;37.574;2023-04-16T08:24:27;10.73;;;9.43;;
75446;SDS011;64024;55.820;37.574;2023-04-16T08:26:52;9.80;;;8.93;;
75446;SDS011;64024;55.820;37.574;2023-04-16T08:29:18;10.38;;;9.23;;
75446;SDS011;64024;55.820;37.574;2023-04-16T08:31:45;11.80;;;9.57;;
75446;SDS011;64024;55.820;37.574;2023-04-16T08:34:11;12.10;;;7.78;;
75446;SDS011;64024;55.820;37.574;2023-04-16T08:36:36;12.05;;;8.70;;
75446;SDS011;64024;55.820;37.574;2023-04-16T08:39:02;9.13;;;7.68;;
75446;SDS011;64024;55.820;37.574;2023-04-16T08:41:28;11.38;;;7.63;;
75446;SDS011;64024;55.820;37.574;2023-04-16T08:43:56;9.50;;;7.55;;
75446;SDS011;64024;55.820;37.574;2023-04-16T08:46:28;9.75;;;8.40;;
75446;SDS011;64024;55.820;37.574;2023-04-16T08:48:55;10.02;;;7.40;;
75446;SDS011;64024;55.820;37.574;2023-04-16T08:51:23;10.02;;;7.88;;
75446;SDS011;64024;55.820;37.574;2023-04-16T08:53:57;8.10;;;6.95;;
75446;SDS011;64024;55.820;37.574;2023-04-16T08:56:26;8.57;;;7.78;;
75446;SDS011;64024;55.820;37.574;2023-04-16T08:58:53;8.00;;;7.07;;
75446;SDS011;64024;55.820;37.574;2023-04-16T09:01:19;10.85;;;8.52;;
75446;SDS011;64024;55.820;37.574;2023-04-16T09:03:46;7.47;;;5.05;;
75446;SDS011;64024;55.820;37.574;2023-04-16T09:08:39;7.28;;;4.18;;
75446;SDS011;64024;55.820;37.574;2023-04-16T09:11:05;7.35;;;4.75;;
75446;SDS011;64024;55.820;37.574;2023-04-16T09:13:31;4.55;;;3.35;;
75446;SDS011;64024;55.820;37.574;2023-04-16T09:15:56;4.00;;;2.78;;
75446;SDS011;64024;55.820;37.574;2023-04-16T09:18:25;4.13;;;3.35;;
75446;SDS011;64024;55.820;37.574;2023-04-16T09:20:52;6.85;;;3.53;;
75446;SDS011;64024;55.820;37.574;2023-04-16T09:23:17;6.10;;;4.15;;
75446;SDS011;64024;55.820;37.574;2023-04-16T09:25:43;6.10;;;4.05;;
75446;SDS011;64024;55.820;37.574;2023-04-16T09:28:09;6.43;;;3.10;;
75446;SDS011;64024;55.820;37.574;2023-04-16T09:30:35;6.93;;;5.32;;
75446;SDS011;64024;55.820;37.574;2023-04-16T09:35:46;4.78;;;3.08;;
75446;SDS011;64024;55.820;37.574;2023-04-16T09:38:15;5.28;;;2.80;;
75446;SDS011;64024;55.820;37.574;2023-04-16T09:40:41;8.27;;;3.13;;
75446;SDS011;64024;55.820;37.574;2023-04-16T09:43:13;3.78;;;2.90;;
75446;SDS011;64024;55.820;37.574;2023-04-16T09:45:49;3.92;;;2.65;;
75446;SDS011;64024;55.820;37.574;2023-04-16T09:48:30;4.05;;;2.80;;
75446;SDS011;64024;55.820;37.574;2023-04-16T09:50:58;3.55;;;2.22;;
75446;SDS011;64024;55.820;37.574;2023-04-16T09:53:24;4.07;;;2.60;;
75446;SDS011;64024;55.820;37.574;2023-04-16T09:56:12;4.18;;;2.95;;
75446;SDS011;64024;55.820;37.574;2023-04-16T09:58:37;4.25;;;2.55;;
75446;SDS011;64024;55.820;37.574;2023-04-16T10:01:10;6.25;;;2.80;;
75446;SDS011;64024;55.820;37.574;2023-04-16T10:03:37;3.97;;;2.67;;
75446;SDS011;64024;55.820;37.574;2023-04-16T10:08:34;3.97;;;2.90;;
75446;SDS011;64024;55.820;37.574;2023-04-16T10:11:00;4.57;;;2.80;;
75446;SDS011;64024;55.820;37.574;2023-04-16T10:13:26;3.85;;;2.60;;
75446;SDS011;64024;55.820;37.574;2023-04-16T10:15:55;3.25;;;2.42;;
75446;SDS011;64024;55.820;37.574;2023-04-16T10:18:21;4.50;;;2.33;;
75446;SDS011;64024;55.820;37.574;2023-04-16T10:20:47;3.97;;;2.88;;
75446;SDS011;64024;55.820;37.574;2023-04-16T10:23:14;4.38;;;2.88;;
75446;SDS011;64024;55.820;37.574;2023-04-16T10:25:41;3.95;;;2.58;;
75446;SDS011;64024;55.820;37.574;2023-04-16T10:28:08;3.78;;;2.70;;
75446;SDS011;64024;55.820;37.574;2023-04-16T10:30:34;5.97;;;3.28;;
75446;SDS011;64024;55.820;37.574;2023-04-16T10:33:02;6.00;;;3.10;;
75446;SDS011;64024;55.820;37.574;2023-04-16T10:35:29;3.92;;;2.50;;
75446;SDS011;64024;55.820;37.574;2023-04-16T10:37:55;4.45;;;2.60;;
75446;SDS011;64024;55.820;37.574;2023-04-16T10:40:25;5.43;;;2.70;;
75446;SDS011;64024;55.820;37.574;2023-04-16T10:42:57;6.35;;;2.97;;
75446;SDS011;64024;55.820;37.574;2023-04-16T10:45:30;4.18;;;2.80;;
75446;SDS011;64024;55.820;37.574;2023-04-16T10:48:07;4.85;;;3.10;;
75446;SDS011;64024;55.820;37.574;2023-04-16T10:50:37;5.30;;;3.42;;
75446;SDS011;64024;55.820;37.574;2023-04-16T10:53:16;4.78;;;2.47;;
75446;SDS011;64024;55.820;37.574;2023-04-16T10:55:54;6.00;;;2.95;;
75446;SDS011;64024;55.820;37.574;2023-04-16T10:58:30;4.53;;;3.05;;
75446;SDS011;64024;55.820;37.574;2023-04-16T11:00:59;4.20;;;2.85;;
75446;SDS011;64024;55.820;37.574;2023-04-16T11:03:29;6.32;;;3.30;;
75446;SDS011;64024;55.820;37.574;2023-04-16T11:08:51;4.20;;;2.88;;
75446;SDS011;64024;55.820;37.574;2023-04-16T11:11:17;3.53;;;2.67;;
75446;SDS011;64024;55.820;37.574;2023-04-16T11:13:43;3.45;;;2.67;;
75446;SDS011;64024;55.820;37.574;2023-04-16T11:16:12;4.72;;;2.88;;
75446;SDS011;64024;55.820;37.574;2023-04-16T11:18:38;4.50;;;2.63;;
75446;SDS011;64024;55.820;37.574;2023-04-16T11:21:08;6.13;;;3.58;;
75446;SDS011;64024;55.820;37.574;2023-04-16T11:23:49;6.55;;;3.60;;
75446;SDS011;64024;55.820;37.574;2023-04-16T11:26:19;4.15;;;2.58;;
75446;SDS011;64024;55.820;37.574;2023-04-16T11:28:47;4.95;;;2.65;;
75446;SDS011;64024;55.820;37.574;2023-04-16T11:31:12;4.60;;;3.17;;
75446;SDS011;64024;55.820;37.574;2023-04-16T11:33:38;3.65;;;2.95;;
75446;SDS011;64024;55.820;37.574;2023-04-16T11:36:03;4.70;;;3.15;;
75446;SDS011;64024;55.820;37.574;2023-04-16T11:38:34;5.68;;;3.17;;
75446;SDS011;64024;55.820;37.574;2023-04-16T11:41:01;4.78;;;3.30;;
75446;SDS011;64024;55.820;37.574;2023-04-16T11:43:27;5.63;;;2.92;;
75446;SDS011;64024;55.820;37.574;2023-04-16T11:45:54;9.52;;;3.40;;
75446;SDS011;64024;55.820;37.574;2023-04-16T11:48:24;6.15;;;3.33;;
75446;SDS011;64024;55.820;37.574;2023-04-16T11:50:55;6.15;;;2.78;;
75446;SDS011;64024;55.820;37.574;2023-04-16T11:53:21;4.10;;;3.60;;
75446;SDS011;64024;55.820;37.574;2023-04-16T11:55:46;4.57;;;3.20;;
75446;SDS011;64024;55.820;37.574;2023-04-16T11:58:12;9.48;;;3.58;;
75446;SDS011;64024;55.820;37.574;2023-04-16T12:00:40;6.20;;;3.38;;
75446;SDS011;64024;55.820;37.574;2023-04-16T12:03:07;11.23;;;3.25;;
75446;SDS011;64024;55.820;37.574;2023-04-16T12:05:34;4.57;;;2.97;;
75446;SDS011;64024;55.820;37.574;2023-04-16T12:08:06;4.15;;;3.20;;
75446;SDS011;64024;55.820;37.574;2023-04-16T12:10:34;5.70;;;3.55;;
75446;SDS011;64024;55.820;37.574;2023-04-16T12:13:10;2.92;;;2.60;;
75446;SDS011;64024;55.820;37.574;2023-04-16T12:15:46;8.40;;;3.63;;
75446;SDS011;64024;55.820;37.574;2023-04-16T12:18:16;5.03;;;3.78;;
75446;SDS011;64024;55.820;37.574;2023-04-16T12:20:44;5.50;;;2.65;;
75446;SDS011;64024;55.820;37.574;2023-04-16T12:23:32;6.72;;;3.72;;
75446;SDS011;64024;55.820;37.574;2023-04-16T12:25:57;5.10;;;3.28;;
75446;SDS011;64024;55.820;37.574;2023-04-16T12:28:34;4.70;;;3.20;;
75446;SDS011;64024;55.820;37.574;2023-04-16T12:31:02;8.23;;;3.67;;
75446;SDS011;64024;55.820;37.574;2023-04-16T12:33:28;6.85;;;3.58;;
75446;SDS011;64024;55.820;37.574;2023-04-16T12:35:54;4.65;;;2.92;;
75446;SDS011;64024;55.820;37.574;2023-04-16T12:38:20;5.10;;;3.20;;
75446;SDS011;64024;55.820;37.574;2023-04-16T12:40:46;3.60;;;3.03;;
75446;SDS011;64024;55.820;37.574;2023-04-16T12:43:11;4.65;;;2.88;;
75446;SDS011;64024;55.820;37.574;2023-04-16T12:45:37;5.60;;;3.03;;
75446;SDS011;64024;55.820;37.574;2023-04-16T12:48:03;4.00;;;2.88;;
75446;SDS011;64024;55.820;37.574;2023-04-16T12:50:29;5.07;;;3.63;;
75446;SDS011;64024;55.820;37.574;2023-04-16T12:52:55;5.40;;;3.35;;
75446;SDS011;64024;55.820;37.574;2023-04-16T12:55:22;3.80;;;3.10;;
75446;SDS011;64024;55.820;37.574;2023-04-16T12:57:48;5.30;;;3.50;;
75446;SDS011;64024;55.820;37.574;2023-04-16T13:00:16;5.45;;;3.65;;
75446;SDS011;64024;55.820;37.574;2023-04-16T13:02:42;6.63;;;3.58;;
75446;SDS011;64024;55.820;37.574;2023-04-16T13:05:08;9.90;;;4.35;;
75446;SDS011;64024;55.820;37.574;2023-04-16T13:07:34;6.45;;;3.63;;
75446;SDS011;64024;55.820;37.574;2023-04-16T13:09:59;3.28;;;2.80;;
75446;SDS011;64024;55.820;37.574;2023-04-16T13:12:25;4.45;;;3.95;;
75446;SDS011;64024;55.820;37.574;2023-04-16T13:14:51;4.45;;;3.35;;
75446;SDS011;64024;55.820;37.574;2023-04-16T13:17:17;4.97;;;2.80;;
75446;SDS011;64024;55.820;37.574;2023-04-16T13:19:43;4.18;;;2.20;;
75446;SDS011;64024;55.820;37.574;2023-04-16T13:22:09;5.88;;;2.83;;
75446;SDS011;64024;55.820;37.574;2023-04-16T13:24:34;3.50;;;2.50;;
75446;SDS011;64024;55.820;37.574;2023-04-16T13:27:00;3.38;;;2.53;;
75446;SDS011;64024;55.820;37.574;2023-04-16T13:29:26;3.60;;;2.05;;
75446;SDS011;64024;55.820;37.574;2023-04-16T13:31:51;6.00;;;2.88;;
75446;SDS011;64024;55.820;37.574;2023-04-16T13:34:17;3.67;;;2.45;;
75446;SDS011;64024;55.820;37.574;2023-04-16T13:36:42;4.45;;;2.88;;
75446;SDS011;64024;55.820;37.574;2023-04-16T13:39:08;8.57;;;3.53;;
75446;SDS011;64024;55.820;37.574;2023-04-16T13:41:36;3.97;;;2.17;;
75446;SDS011;64024;55.820;37.574;2023-04-16T13:44:02;4.03;;;2.25;;
75446;SDS011;64024;55.820;37.574;2023-04-16T13:46:28;3.90;;;2.60;;
75446;SDS011;64024;55.820;37.574;2023-04-16T13:48:54;6.15;;;2.78;;
75446;SDS011;64024;55.820;37.574;2023-04-16T13:51:20;3.78;;;1.85;;
75446;SDS011;64024;55.820;37.574;2023-04-16T13:53:46;3.58;;;2.38;;
75446;SDS011;64024;55.820;37.574;2023-04-16T13:56:11;3.40;;;2.45;;
75446;SDS011;64024;55.820;37.574;2023-04-16T13:58:37;7.95;;;3.20;;
75446;SDS011;64024;55.820;37.574;2023-04-16T14:01:03;6.47;;;3.50;;
75446;SDS011;64024;55.820;37.574;2023-04-16T14:03:28;6.13;;;2.90;;
75446;SDS011;64024;55.820;37.574;2023-04-16T14:05:54;4.32;;;2.17;;
75446;SDS011;64024;55.820;37.574;2023-04-16T14:08:19;5.20;;;2.60;;
75446;SDS011;64024;55.820;37.574;2023-04-16T14:10:46;3.92;;;2.22;;
75446;SDS011;64024;55.820;37.574;2023-04-16T14:13:12;4.47;;;2.35;;
75446;SDS011;64024;55.820;37.574;2023-04-16T14:15:38;4.68;;;2.47;;
75446;SDS011;64024;55.820;37.574;2023-04-16T14:18:03;3.28;;;2.22;;
75446;SDS011;64024;55.820;37.574;2023-04-16T14:20:29;3.75;;;2.25;;
75446;SDS011;64024;55.820;37.574;2023-04-16T14:22:55;3.28;;;1.98;;
75446;SDS011;64024;55.820;37.574;2023-04-16T14:25:21;3.17;;;2.22;;
75446;SDS011;64024;55.820;37.574;2023-04-16T14:27:46;3.92;;;2.38;;
75446;SDS011;64024;55.820;37.574;2023-04-16T14:30:12;3.53;;;2.42;;
75446;SDS011;64024;55.820;37.574;2023-04-16T14:32:38;3.30;;;2.28;;
75446;SDS011;64024;55.820;37.574;2023-04-16T14:35:03;3.40;;;2.55;;
75446;SDS011;64024;55.820;37.574;2023-04-16T14:37:29;2.65;;;2.15;;
75446;SDS011;64024;55.820;37.574;2023-04-16T14:39:55;4.65;;;2.80;;